createdAt,value
2017-10-17T00:00:03.250Z,78.87
2017-10-17T00:02:30.919Z,78.82
2017-10-17T00:04:58.595Z,78.89
2017-10-17T00:07:26.202Z,78.84
2017-10-17T00:09:53.827Z,78.51
2017-10-17T00:12:21.437Z,78.49
2017-10-17T00:14:49.062Z,78.53
2017-10-17T00:17:16.657Z,78.30
2017-10-17T00:19:44.275Z,78.38
2017-10-17T00:22:12.120Z,78.58
2017-10-17T00:24:39.850Z,78.50
2017-10-17T00:27:07.447Z,78.42
2017-10-17T00:29:35.187Z,78.64
2017-10-17T00:32:02.785Z,78.64
2017-10-17T00:34:30.403Z,78.59
2017-10-17T00:36:58.034Z,78.62
2017-10-17T00:39:25.657Z,78.70
2017-10-17T00:41:53.252Z,78.73
2017-10-17T00:44:20.878Z,78.50
2017-10-17T00:46:48.463Z,78.18
2017-10-17T00:49:16.092Z,78.11
2017-10-17T00:51:43.679Z,78.06
2017-10-17T00:54:11.323Z,78.23
2017-10-17T00:56:38.915Z,78.22
2017-10-17T00:59:06.535Z,78.31
2017-10-17T01:01:34.127Z,78.44
2017-10-17T01:04:01.817Z,78.63
2017-10-17T01:06:29.407Z,78.54
2017-10-17T01:08:57.041Z,78.64
2017-10-17T01:11:24.643Z,78.78
2017-10-17T01:13:52.265Z,78.91
2017-10-17T01:16:19.922Z,78.79
2017-10-17T01:18:47.551Z,78.36
2017-10-17T01:21:15.914Z,78.42
2017-10-17T01:24:04.118Z,78.35
2017-10-17T01:26:31.743Z,78.38
2017-10-17T01:29:16.959Z,78.29
2017-10-17T01:31:46.503Z,78.58
2017-10-17T01:34:14.135Z,78.83
2017-10-17T01:36:41.767Z,78.87
2017-10-17T01:39:09.407Z,79.04
2017-10-17T01:41:37.008Z,79.15
2017-10-17T01:44:09.180Z,79.40
2017-10-17T01:46:36.779Z,79.39
2017-10-17T01:49:06.246Z,79.37
2017-10-17T01:51:35.728Z,79.47
2017-10-17T01:54:13.982Z,79.38
2017-10-17T01:56:41.583Z,79.49
2017-10-17T02:02:21.100Z,79.54
2017-10-17T02:04:48.715Z,79.70
2017-10-17T02:07:16.342Z,79.56
2017-10-17T02:10:00.627Z,79.80
2017-10-17T02:12:28.233Z,79.56
2017-10-17T02:14:55.826Z,79.57
2017-10-17T02:17:26.734Z,79.82
2017-10-17T02:19:54.350Z,80.18
2017-10-17T02:22:28.635Z,80.34
2017-10-17T02:24:57.658Z,80.29
2017-10-17T02:27:25.270Z,80.24
2017-10-17T02:29:57.390Z,80.18
2017-10-17T02:32:24.975Z,80.10
2017-10-17T02:34:56.124Z,80.11
2017-10-17T02:37:23.703Z,80.63
2017-10-17T02:39:51.313Z,80.71
2017-10-17T02:42:18.933Z,80.59
2017-10-17T02:44:46.535Z,80.32
2017-10-17T02:47:14.150Z,80.13
2017-10-17T02:49:42.587Z,80.46
2017-10-17T02:52:16.019Z,80.36
2017-10-17T02:54:43.651Z,80.57
2017-10-17T02:57:11.265Z,80.43
2017-10-17T02:59:41.369Z,80.51
2017-10-17T03:02:08.990Z,80.47
2017-10-17T03:04:43.271Z,80.40
2017-10-17T03:07:10.914Z,80.52
2017-10-17T03:09:38.506Z,81.01
2017-10-17T03:12:06.196Z,81.59
2017-10-17T03:14:39.030Z,82.11
2017-10-17T03:17:06.657Z,82.36
2017-10-17T03:19:34.251Z,82.24
2017-10-17T03:22:01.882Z,82.00
2017-10-17T03:24:52.121Z,82.38
2017-10-17T03:27:19.747Z,82.54
2017-10-17T03:29:47.335Z,82.65
2017-10-17T03:32:15.000Z,82.92
2017-10-17T03:34:42.578Z,83.43
2017-10-17T03:37:21.559Z,84.04
2017-10-17T03:40:01.514Z,84.23
2017-10-17T03:42:29.760Z,84.00
2017-10-17T03:44:57.365Z,84.02
2017-10-17T03:47:43.495Z,84.05
2017-10-17T03:50:13.874Z,84.35
2017-10-17T03:52:45.857Z,84.39
2017-10-17T03:55:13.482Z,84.45
2017-10-17T03:57:48.647Z,84.58
2017-10-17T04:00:17.886Z,84.31
2017-10-17T04:02:50.139Z,84.00
2017-10-17T04:05:23.234Z,83.63
2017-10-17T04:07:52.622Z,83.06
2017-10-17T04:10:25.718Z,82.60
2017-10-17T04:13:08.967Z,82.72
2017-10-17T04:15:36.556Z,82.14
2017-10-17T04:20:59.550Z,83.10
2017-10-17T04:23:29.010Z,84.16
2017-10-17T04:25:58.857Z,84.31
2017-10-17T04:28:30.844Z,84.23
2017-10-17T04:31:02.263Z,84.06
2017-10-17T04:47:18.614Z,83.37
2017-10-17T04:49:58.034Z,83.51
2017-10-17T04:52:30.454Z,83.22
2017-10-17T04:54:58.885Z,83.35
2017-10-17T04:57:27.252Z,83.68
2017-10-17T05:00:00.305Z,84.04
2017-10-17T05:02:27.905Z,84.19
2017-10-17T05:08:14.143Z,83.86
2017-10-17T05:10:42.525Z,83.86
2017-10-17T05:13:22.684Z,84.07
2017-10-17T05:16:04.750Z,83.71
2017-10-17T05:18:36.138Z,84.55
2017-10-17T05:21:03.751Z,85.55
2017-10-17T05:26:27.487Z,85.79
2017-10-17T05:28:56.507Z,85.88
2017-10-17T05:31:24.094Z,85.55
2017-10-17T05:33:53.442Z,85.45
2017-10-17T05:36:25.686Z,85.33
2017-10-17T05:38:53.316Z,86.56
2017-10-17T05:41:20.908Z,86.34
2017-10-17T05:57:19.251Z,85.66
2017-10-17T05:59:46.894Z,85.73
2017-10-17T06:02:14.485Z,85.54
2017-10-17T06:04:42.117Z,85.94
2017-10-17T06:07:09.723Z,86.19
2017-10-17T06:09:37.364Z,86.33
2017-10-17T06:12:04.963Z,86.68
2017-10-17T06:14:32.615Z,86.78
2017-10-17T06:17:00.325Z,86.69
2017-10-17T06:19:27.987Z,86.65
2017-10-17T06:21:55.602Z,86.48
2017-10-17T06:24:23.257Z,86.15
2017-10-17T06:26:50.825Z,85.94
2017-10-17T06:29:18.447Z,86.26
2017-10-17T06:31:46.050Z,86.24
2017-10-17T06:34:13.740Z,86.13
2017-10-17T06:36:41.426Z,86.03
2017-10-17T06:39:09.054Z,85.73
2017-10-17T06:41:36.667Z,85.88
2017-10-17T06:44:04.331Z,86.45
2017-10-17T06:46:31.948Z,86.99
2017-10-17T06:48:59.578Z,87.38
2017-10-17T06:51:27.359Z,86.98
2017-10-17T06:53:54.999Z,87.19
2017-10-17T06:56:22.646Z,87.20
2017-10-17T06:58:50.285Z,87.10
2017-10-17T07:01:17.907Z,87.44
2017-10-17T07:03:45.541Z,87.92
2017-10-17T07:06:13.139Z,88.07
2017-10-17T07:08:41.002Z,87.72
2017-10-17T07:11:08.747Z,87.84
2017-10-17T07:13:36.383Z,87.75
2017-10-17T07:16:04.009Z,87.52
2017-10-17T07:18:31.643Z,87.14
2017-10-17T07:20:59.323Z,86.75
2017-10-17T07:23:26.973Z,86.54
2017-10-17T07:25:54.633Z,86.28
2017-10-17T07:28:22.263Z,86.04
2017-10-17T07:30:49.876Z,85.98
2017-10-17T07:33:17.521Z,85.90
2017-10-17T07:35:45.122Z,85.87
2017-10-17T07:38:12.767Z,85.32
2017-10-17T07:40:40.375Z,85.56
2017-10-17T07:43:08.059Z,85.85
2017-10-17T07:45:35.665Z,85.85
2017-10-17T07:48:03.379Z,85.66
2017-10-17T07:50:30.987Z,85.21
2017-10-17T07:52:58.608Z,85.05
2017-10-17T07:55:26.200Z,84.65
2017-10-17T07:57:53.842Z,84.84
2017-10-17T08:00:21.454Z,85.42
2017-10-17T08:02:49.099Z,85.78
2017-10-17T08:05:16.689Z,85.70
2017-10-17T08:07:44.309Z,85.73
2017-10-17T08:10:11.924Z,86.14
2017-10-17T08:12:39.648Z,86.26
2017-10-17T08:15:07.263Z,86.30
2017-10-17T08:17:34.907Z,86.36
2017-10-17T08:20:02.571Z,86.16
2017-10-17T08:22:30.264Z,86.15
2017-10-17T08:24:57.941Z,86.05
2017-10-17T08:27:25.582Z,85.68
2017-10-17T08:29:53.175Z,85.31
2017-10-17T08:32:20.782Z,85.52
2017-10-17T08:34:48.428Z,85.63
2017-10-17T08:37:16.030Z,85.85
2017-10-17T08:39:43.780Z,85.79
2017-10-17T08:42:11.377Z,86.00
2017-10-17T08:44:39.074Z,85.71
2017-10-17T08:47:06.698Z,85.38
2017-10-17T08:49:34.544Z,85.50
2017-10-17T08:52:02.170Z,84.85
2017-10-17T08:54:29.808Z,84.32
2017-10-17T08:56:57.428Z,84.46
2017-10-17T08:59:25.059Z,84.52
2017-10-17T09:01:52.674Z,84.73
2017-10-17T09:04:20.331Z,84.76
2017-10-17T09:06:47.934Z,84.90
2017-10-17T09:09:15.563Z,84.73
2017-10-17T09:11:43.178Z,84.97
2017-10-17T09:14:10.835Z,84.72
2017-10-17T09:16:38.474Z,84.50
2017-10-17T09:19:06.118Z,84.06
2017-10-17T09:21:33.723Z,83.82
2017-10-17T09:24:01.385Z,83.95
2017-10-17T09:26:28.986Z,83.71
2017-10-17T09:28:56.691Z,83.63
2017-10-17T09:31:24.371Z,83.69
2017-10-17T09:33:52.007Z,83.26
2017-10-17T09:36:19.609Z,83.20
2017-10-17T09:38:47.268Z,82.90
2017-10-17T09:41:14.960Z,82.76
2017-10-17T09:43:42.602Z,81.68
2017-10-17T09:46:10.195Z,82.05
2017-10-17T09:48:37.901Z,82.02
2017-10-17T09:51:05.529Z,81.63
2017-10-17T09:53:33.208Z,81.09
2017-10-17T09:56:00.820Z,81.28
2017-10-17T09:58:28.429Z,81.20
2017-10-17T10:00:56.087Z,80.71
2017-10-17T10:03:23.723Z,80.27
2017-10-17T10:05:51.370Z,80.44
2017-10-17T10:08:18.975Z,79.98
2017-10-17T10:10:46.631Z,79.78
2017-10-17T10:13:14.352Z,79.38
2017-10-17T10:15:41.987Z,79.58
2017-10-17T10:18:09.603Z,79.08
2017-10-17T10:20:37.231Z,78.53
2017-10-17T10:23:04.835Z,78.71
2017-10-17T10:25:32.559Z,78.28
2017-10-17T10:28:00.186Z,78.42
2017-10-17T10:30:27.844Z,78.73
2017-10-17T10:32:55.453Z,78.36
2017-10-17T10:35:23.096Z,78.53
2017-10-17T10:37:50.706Z,78.66
2017-10-17T10:40:18.394Z,78.66
2017-10-17T10:42:46.008Z,78.76
2017-10-17T10:45:13.715Z,78.90
2017-10-17T10:47:41.306Z,78.25
2017-10-17T10:50:08.944Z,78.10
2017-10-17T10:52:36.548Z,77.50
2017-10-17T10:55:04.200Z,77.83
2017-10-17T10:57:31.808Z,77.51
2017-10-17T10:59:59.470Z,76.89
2017-10-17T11:02:27.086Z,76.84
2017-10-17T11:04:54.861Z,77.48
2017-10-17T11:07:22.494Z,77.45
2017-10-17T11:09:50.100Z,77.88
2017-10-17T11:12:17.747Z,77.21
2017-10-17T11:14:45.355Z,76.75
2017-10-17T11:17:13.007Z,76.60
2017-10-17T11:19:40.604Z,76.22
2017-10-17T11:22:08.247Z,75.70
2017-10-17T11:24:35.842Z,74.84
2017-10-17T11:27:03.483Z,75.32
2017-10-17T11:29:31.075Z,75.00
2017-10-17T11:31:58.796Z,75.19
2017-10-17T11:34:26.418Z,74.27
2017-10-17T11:36:54.046Z,73.56
2017-10-17T11:39:21.646Z,73.17
2017-10-17T11:42:00.999Z,72.85
2017-10-17T11:44:28.614Z,73.36
2017-10-17T11:46:56.259Z,73.38
2017-10-17T11:49:23.864Z,73.29
2017-10-17T11:51:51.499Z,73.04
2017-10-17T11:54:19.119Z,72.86
2017-10-17T11:56:46.808Z,71.85
2017-10-17T11:59:14.424Z,72.29
2017-10-17T12:01:42.071Z,71.50
2017-10-17T12:04:09.679Z,71.10
2017-10-17T12:06:37.292Z,71.01
2017-10-17T12:09:04.919Z,71.11
2017-10-17T12:11:32.635Z,70.74
2017-10-17T12:14:00.267Z,71.52
2017-10-17T12:16:27.906Z,70.58
2017-10-17T12:18:55.555Z,70.12
2017-10-17T12:21:23.162Z,70.18
2017-10-17T12:23:50.824Z,68.86
2017-10-17T12:26:18.426Z,68.87
2017-10-17T12:28:46.047Z,69.33
2017-10-17T12:31:13.654Z,70.33
2017-10-17T12:33:41.303Z,70.05
2017-10-17T12:36:08.915Z,70.35
2017-10-17T12:38:36.569Z,71.20
2017-10-17T12:41:04.202Z,71.45
2017-10-17T12:43:31.847Z,71.36
2017-10-17T12:45:59.470Z,71.42
2017-10-17T12:48:27.103Z,71.39
2017-10-17T12:50:54.702Z,71.32
2017-10-17T12:53:22.332Z,71.26
2017-10-17T12:55:49.960Z,71.06
2017-10-17T12:58:17.605Z,70.95
2017-10-17T13:00:45.215Z,70.16
2017-10-17T13:03:12.857Z,70.14
2017-10-17T13:05:40.499Z,70.41
2017-10-17T13:08:08.152Z,68.43
2017-10-17T13:10:35.834Z,69.05
2017-10-17T13:13:03.485Z,68.74
2017-10-17T13:15:31.091Z,69.24
2017-10-17T13:17:58.725Z,69.21
2017-10-17T13:20:26.318Z,69.99
2017-10-17T13:22:53.971Z,70.82
2017-10-17T13:25:21.579Z,70.80
2017-10-17T13:27:49.220Z,70.95
2017-10-17T13:30:16.847Z,71.08
2017-10-17T13:32:44.490Z,71.12
2017-10-17T13:35:12.094Z,71.30
2017-10-17T13:37:39.764Z,71.26
2017-10-17T13:40:07.371Z,71.59
2017-10-17T13:42:35.062Z,71.58
2017-10-17T13:45:02.688Z,72.04
2017-10-17T13:47:30.329Z,71.75
2017-10-17T13:49:57.927Z,70.55
2017-10-17T13:52:25.594Z,70.33
2017-10-17T13:54:53.200Z,70.10
2017-10-17T13:57:20.800Z,70.59
2017-10-17T13:59:48.439Z,70.13
2017-10-17T14:02:16.058Z,70.81
2017-10-17T14:04:43.728Z,69.92
2017-10-17T14:07:11.330Z,69.29
2017-10-17T14:09:38.969Z,70.26
2017-10-17T14:12:06.579Z,70.98
2017-10-17T14:14:34.223Z,71.68
2017-10-17T14:17:01.846Z,71.68
2017-10-17T14:19:29.513Z,71.67
2017-10-17T14:21:57.179Z,71.93
2017-10-17T14:24:24.819Z,71.65
2017-10-17T14:26:52.437Z,70.63
2017-10-17T14:29:20.069Z,71.35
2017-10-17T14:31:47.695Z,70.51
2017-10-17T14:34:15.356Z,69.74
2017-10-17T14:36:42.997Z,70.35
2017-10-17T14:39:10.587Z,70.31
2017-10-17T14:41:38.214Z,70.55
2017-10-17T14:44:05.842Z,70.54
2017-10-17T14:46:33.498Z,70.50
2017-10-17T14:49:01.242Z,71.03
2017-10-17T14:51:28.875Z,71.28
2017-10-17T14:53:56.475Z,71.80
2017-10-17T14:56:24.129Z,71.68
2017-10-17T14:58:51.876Z,71.99
2017-10-17T15:01:19.492Z,72.45
2017-10-17T15:03:47.091Z,72.72
2017-10-17T15:06:14.718Z,72.97
2017-10-17T15:08:42.318Z,73.16
2017-10-17T15:11:09.987Z,72.93
2017-10-17T15:13:37.583Z,73.49
2017-10-17T15:16:05.240Z,73.92
2017-10-17T15:18:32.858Z,74.16
2017-10-17T15:21:00.504Z,74.15
2017-10-17T15:23:28.115Z,74.69
2017-10-17T15:25:55.766Z,74.81
2017-10-17T15:28:23.476Z,74.96
2017-10-17T15:30:51.128Z,74.87
2017-10-17T15:33:18.730Z,75.24
2017-10-17T15:35:46.359Z,75.83
2017-10-17T15:38:13.992Z,76.52
2017-10-17T15:40:41.619Z,76.74
2017-10-17T15:43:09.194Z,77.14
2017-10-17T15:45:36.816Z,77.28
2017-10-17T15:48:04.416Z,77.50
2017-10-17T15:50:32.071Z,77.67
2017-10-17T15:52:59.687Z,77.78
2017-10-17T15:55:27.395Z,77.93
2017-10-17T15:57:55.014Z,77.83
2017-10-17T16:00:22.663Z,78.28
2017-10-17T16:02:50.274Z,78.63
2017-10-17T16:05:17.915Z,78.84
2017-10-17T16:07:45.558Z,79.07
2017-10-17T16:10:13.188Z,79.28
2017-10-17T16:12:40.806Z,79.64
2017-10-17T16:15:08.440Z,79.95
2017-10-17T16:17:36.044Z,80.08
2017-10-17T16:20:03.690Z,80.47
2017-10-17T16:22:31.299Z,80.82
2017-10-17T16:24:58.952Z,80.87
2017-10-17T16:27:26.559Z,81.23
2017-10-17T16:29:54.203Z,81.81
2017-10-17T16:32:21.815Z,82.52
2017-10-17T16:34:49.460Z,82.66
2017-10-17T16:37:17.063Z,82.58
2017-10-17T16:39:44.699Z,82.51
2017-10-17T16:42:12.311Z,82.63
2017-10-17T16:44:39.944Z,82.90
2017-10-17T16:47:07.556Z,83.31
2017-10-17T16:49:35.195Z,83.52
2017-10-17T16:52:02.817Z,83.78
2017-10-17T16:54:30.456Z,83.88
2017-10-17T16:56:58.067Z,83.79
2017-10-17T16:59:25.715Z,84.15
2017-10-17T17:01:53.362Z,85.07
2017-10-17T17:04:20.993Z,85.70
2017-10-17T17:06:48.604Z,85.87
2017-10-17T17:09:16.243Z,86.04
2017-10-17T17:11:43.861Z,85.59
2017-10-17T17:14:11.549Z,85.78
2017-10-17T17:16:39.186Z,85.88
2017-10-17T17:19:06.845Z,86.08
2017-10-17T17:21:34.570Z,86.21
2017-10-17T17:24:02.218Z,86.09
2017-10-17T17:26:29.824Z,85.57
2017-10-17T17:28:57.489Z,85.16
2017-10-17T17:31:25.103Z,84.92
2017-10-17T17:33:52.750Z,84.98
2017-10-17T17:36:20.394Z,85.19
2017-10-17T17:38:48.043Z,85.22
2017-10-17T17:41:15.658Z,85.45
2017-10-17T17:43:43.312Z,85.59
2017-10-17T17:46:10.935Z,85.39
2017-10-17T17:48:38.587Z,85.34
2017-10-17T17:51:06.223Z,85.36
2017-10-17T17:55:34.946Z,85.03
2017-10-17T17:58:02.632Z,85.10
2017-10-17T18:00:30.234Z,85.27
2017-10-17T18:02:57.921Z,84.58
2017-10-17T18:05:25.592Z,85.01
2017-10-17T18:07:53.232Z,85.65
2017-10-17T18:10:20.903Z,86.06
2017-10-17T18:12:48.532Z,85.85
2017-10-17T18:15:16.174Z,85.53
2017-10-17T18:17:43.775Z,85.20
2017-10-17T18:20:11.483Z,85.31
2017-10-17T18:22:39.111Z,85.44
2017-10-17T18:25:06.767Z,85.32
2017-10-17T18:27:34.387Z,85.16
2017-10-17T18:30:02.048Z,85.39
2017-10-17T18:32:29.651Z,85.50
2017-10-17T18:34:57.290Z,85.83
2017-10-17T18:37:24.891Z,86.72
2017-10-17T18:39:52.543Z,87.47
2017-10-17T18:42:20.142Z,87.92
2017-10-17T18:44:47.799Z,88.04
2017-10-17T18:47:15.428Z,87.56
2017-10-17T18:49:43.071Z,86.77
2017-10-17T18:52:10.688Z,87.71
2017-10-17T18:54:38.328Z,88.16
2017-10-17T18:57:05.948Z,88.40
2017-10-17T18:59:33.579Z,88.34
2017-10-17T19:02:01.227Z,87.73
2017-10-17T19:04:28.873Z,87.65
2017-10-17T19:06:56.531Z,87.30
2017-10-17T19:09:24.188Z,87.42
2017-10-17T19:11:51.807Z,87.25
2017-10-17T19:14:19.460Z,87.13
2017-10-17T19:16:47.087Z,86.69
2017-10-17T19:19:14.767Z,86.50
2017-10-17T19:21:42.385Z,86.40
2017-10-17T19:24:10.115Z,86.82
2017-10-17T19:26:37.733Z,87.34
2017-10-17T19:29:05.356Z,87.64
2017-10-17T19:31:33.026Z,87.43
2017-10-17T19:34:00.703Z,87.47
2017-10-17T19:36:28.325Z,87.31
2017-10-17T19:38:56.020Z,87.19
2017-10-17T19:41:23.693Z,86.54
2017-10-17T19:43:51.459Z,86.25
2017-10-17T19:46:19.072Z,86.18
2017-10-17T19:48:46.745Z,85.61
2017-10-17T19:51:14.355Z,86.11
2017-10-17T19:53:42.050Z,86.31
2017-10-17T19:56:09.671Z,86.45
2017-10-17T19:58:37.384Z,86.31
2017-10-17T20:01:05.017Z,86.11
2017-10-17T20:03:32.691Z,86.75
2017-10-17T20:06:00.307Z,86.97
2017-10-17T20:08:27.984Z,86.81
2017-10-17T20:10:55.576Z,86.53
2017-10-17T20:13:23.212Z,86.58
2017-10-17T20:15:50.813Z,86.63
2017-10-17T20:18:18.454Z,86.89
2017-10-17T20:20:46.066Z,86.99
2017-10-17T20:23:13.746Z,86.98
2017-10-17T20:25:41.356Z,87.50
2017-10-17T20:28:09.069Z,88.37
2017-10-17T20:30:36.675Z,89.00
2017-10-17T20:33:04.330Z,89.36
2017-10-17T20:35:31.951Z,89.26
2017-10-17T20:37:59.622Z,88.97
2017-10-17T20:40:27.245Z,88.52
2017-10-17T20:42:54.912Z,87.83
2017-10-17T20:45:22.509Z,87.50
2017-10-17T20:47:50.140Z,87.16
2017-10-17T20:50:17.743Z,87.15
2017-10-17T20:52:45.436Z,87.18
2017-10-17T20:55:13.049Z,86.74
2017-10-17T20:57:40.715Z,86.62
2017-10-17T21:00:08.431Z,86.51
2017-10-17T21:02:36.071Z,86.57
2017-10-17T21:05:03.789Z,86.74
2017-10-17T21:07:31.430Z,86.74
2017-10-17T21:09:59.056Z,86.41
2017-10-17T21:12:26.680Z,86.05
2017-10-17T21:14:54.291Z,85.92
2017-10-17T21:17:21.957Z,86.00
2017-10-17T21:19:49.573Z,85.89
2017-10-17T21:22:17.200Z,85.85
2017-10-17T21:24:44.823Z,85.49
2017-10-17T21:27:12.446Z,85.59
2017-10-17T21:29:40.056Z,85.74
2017-10-17T21:32:07.697Z,85.71
2017-10-17T21:34:35.281Z,86.58
2017-10-17T21:37:02.903Z,87.82
2017-10-17T21:39:30.544Z,88.86
2017-10-17T21:41:58.151Z,89.05
2017-10-17T21:44:25.782Z,88.49
2017-10-17T21:46:53.390Z,88.07
2017-10-17T21:49:21.044Z,87.53
2017-10-17T21:51:48.703Z,87.27
2017-10-17T21:54:16.326Z,87.18
2017-10-17T21:56:43.975Z,87.65
2017-10-17T21:59:11.576Z,87.61
2017-10-17T22:01:39.195Z,87.44
2017-10-17T22:04:06.831Z,87.09
2017-10-17T22:06:34.448Z,86.92
2017-10-17T22:09:02.084Z,86.73
2017-10-17T22:11:29.680Z,86.80
2017-10-17T22:13:57.360Z,86.69
2017-10-17T22:16:25.003Z,87.15
2017-10-17T22:18:52.651Z,87.47
2017-10-17T22:21:20.251Z,87.97
2017-10-17T22:23:47.883Z,89.03
2017-10-17T22:26:15.523Z,89.54
2017-10-17T22:28:43.204Z,89.67
2017-10-17T22:31:10.811Z,89.39
2017-10-17T22:33:38.517Z,88.95
2017-10-17T22:36:06.110Z,89.56
2017-10-17T22:38:33.751Z,89.71
2017-10-17T22:41:01.370Z,89.39
2017-10-17T22:43:29.020Z,89.12
2017-10-17T22:45:56.643Z,88.82
2017-10-17T22:48:24.290Z,88.73
2017-10-17T22:50:51.902Z,88.72
2017-10-17T22:53:19.578Z,88.87
2017-10-17T22:55:47.178Z,88.74
2017-10-17T22:58:14.817Z,88.47
2017-10-17T23:00:42.440Z,87.75
2017-10-17T23:03:10.077Z,87.17
2017-10-17T23:05:37.676Z,87.32
2017-10-17T23:08:05.288Z,87.22
2017-10-17T23:10:32.927Z,87.65
2017-10-17T23:13:00.520Z,87.69
2017-10-17T23:15:28.170Z,87.75
2017-10-17T23:18:07.377Z,88.95
2017-10-17T23:20:36.859Z,89.49
2017-10-17T23:23:04.467Z,89.08
2017-10-17T23:25:32.143Z,89.55
2017-10-17T23:27:59.742Z,89.63
2017-10-17T23:30:27.394Z,89.30
2017-10-17T23:32:54.998Z,88.86
2017-10-17T23:35:22.675Z,88.24
2017-10-17T23:37:50.311Z,87.62
2017-10-17T23:40:17.950Z,87.19
2017-10-17T23:42:45.554Z,87.10
2017-10-17T23:45:13.224Z,86.85
2017-10-17T23:47:40.830Z,86.85
2017-10-17T23:50:08.454Z,86.93
2017-10-17T23:52:36.056Z,87.47
2017-10-17T23:55:03.655Z,87.82
2017-10-17T23:57:31.290Z,88.15
2017-10-17T23:59:58.907Z,88.43
